createdAt,value
2023-06-17T00:01:19.557Z,19.63
2023-06-17T00:03:47.339Z,19.59
2023-06-17T00:06:14.910Z,19.55
2023-06-17T00:08:42.345Z,19.52
2023-06-17T00:11:09.795Z,19.50
2023-06-17T00:13:38.589Z,19.46
2023-06-17T00:16:07.557Z,19.43
2023-06-17T00:18:35.094Z,19.39
2023-06-17T00:21:04.127Z,19.36
2023-06-17T00:23:32.289Z,19.33
2023-06-17T00:25:59.758Z,19.30
2023-06-17T00:28:27.279Z,19.27
2023-06-17T00:30:54.724Z,19.25
2023-06-17T00:33:23.698Z,19.23
2023-06-17T00:35:52.908Z,19.20
2023-06-17T00:38:21.736Z,19.18
2023-06-17T00:40:49.205Z,19.15
2023-06-17T00:43:16.645Z,19.13
2023-06-17T00:45:44.350Z,19.10
2023-06-17T00:48:12.047Z,19.09
2023-06-17T00:50:39.977Z,19.07
2023-06-17T00:53:07.670Z,19.03
2023-06-17T00:55:35.189Z,19.02
2023-06-17T00:58:02.762Z,18.99
2023-06-17T01:00:30.356Z,18.97
2023-06-17T01:02:58.364Z,18.95
2023-06-17T01:05:26.407Z,18.93
2023-06-17T01:08:04.989Z,18.91
2023-06-17T01:10:45.349Z,18.88
2023-06-17T01:13:13.402Z,18.86
2023-06-17T01:15:41.221Z,18.85
2023-06-17T01:18:09.206Z,18.84
2023-06-17T01:20:40.737Z,18.84
2023-06-17T01:23:08.590Z,18.83
2023-06-17T01:25:36.786Z,18.83
2023-06-17T01:28:18.802Z,18.82
2023-06-17T01:30:48.544Z,18.81
2023-06-17T01:33:16.255Z,18.79
2023-06-17T01:36:10.533Z,18.78
2023-06-17T01:38:42.566Z,18.75
2023-06-17T01:41:20.911Z,18.73
2023-06-17T01:43:48.370Z,18.72
2023-06-17T01:46:15.933Z,18.69
2023-06-17T01:48:43.904Z,18.68
2023-06-17T01:51:11.900Z,18.66
2023-06-17T01:53:39.453Z,18.63
2023-06-17T01:56:07.014Z,18.62
2023-06-17T01:58:34.498Z,18.60
2023-06-17T02:01:01.969Z,18.58
2023-06-17T02:03:29.868Z,18.57
2023-06-17T02:05:57.687Z,18.56
2023-06-17T02:08:25.347Z,18.55
2023-06-17T02:10:53.256Z,18.53
2023-06-17T02:13:21.163Z,18.54
2023-06-17T02:15:48.749Z,18.54
2023-06-17T02:18:16.325Z,18.55
2023-06-17T02:20:46.674Z,18.56
2023-06-17T02:23:14.236Z,18.56
2023-06-17T02:25:41.775Z,18.57
2023-06-17T02:28:09.391Z,18.57
2023-06-17T02:30:37.126Z,18.58
2023-06-17T02:33:05.200Z,18.59
2023-06-17T02:35:32.965Z,18.61
2023-06-17T02:38:00.852Z,18.63
2023-06-17T02:40:28.502Z,18.68
2023-06-17T02:42:56.398Z,18.72
2023-06-17T02:45:24.047Z,18.79
2023-06-17T02:47:52.155Z,18.87
2023-06-17T02:50:24.538Z,18.96
2023-06-17T02:52:57.353Z,19.02
2023-06-17T02:55:27.141Z,19.07
2023-06-17T02:57:55.185Z,19.12
2023-06-17T03:00:24.215Z,19.15
2023-06-17T03:02:52.245Z,19.17
2023-06-17T03:05:20.068Z,19.20
2023-06-17T03:07:48.137Z,19.22
2023-06-17T03:10:16.989Z,19.26
2023-06-17T03:12:47.443Z,19.29
2023-06-17T03:15:18.695Z,19.32
2023-06-17T03:17:47.269Z,19.35
2023-06-17T03:20:15.541Z,19.40
2023-06-17T03:22:43.214Z,19.46
2023-06-17T03:25:11.067Z,19.50
2023-06-17T03:27:39.074Z,19.52
2023-06-17T03:30:07.146Z,19.56
2023-06-17T03:32:34.661Z,19.61
2023-06-17T03:35:03.542Z,19.64
2023-06-17T03:37:31.319Z,19.66
2023-06-17T03:39:58.873Z,19.69
2023-06-17T03:42:27.718Z,19.73
2023-06-17T03:44:55.179Z,19.78
2023-06-17T03:47:22.692Z,19.83
2023-06-17T03:49:50.692Z,19.88
2023-06-17T03:52:18.278Z,19.94
2023-06-17T03:54:45.914Z,19.98
2023-06-17T03:57:13.822Z,20.02
2023-06-17T03:59:41.381Z,20.06
2023-06-17T04:02:09.004Z,20.10
2023-06-17T04:04:36.495Z,20.17
2023-06-17T04:07:04.236Z,20.25
2023-06-17T04:09:33.896Z,20.33
2023-06-17T04:12:03.322Z,20.41
2023-06-17T04:14:30.862Z,20.49
2023-06-17T04:17:00.620Z,20.56
2023-06-17T04:19:28.169Z,20.60
2023-06-17T04:21:55.812Z,20.66
2023-06-17T04:24:23.404Z,20.72
2023-06-17T04:26:54.034Z,20.77
2023-06-17T04:29:23.716Z,20.81
2023-06-17T04:31:51.184Z,20.85
2023-06-17T04:34:25.302Z,20.94
2023-06-17T04:36:58.621Z,20.93
2023-06-17T04:39:29.441Z,20.92
2023-06-17T04:41:57.666Z,21.01
2023-06-17T04:44:25.176Z,21.09
2023-06-17T04:46:53.151Z,21.15
2023-06-17T04:49:21.312Z,21.23
2023-06-17T04:51:49.850Z,21.32
2023-06-17T04:54:17.997Z,21.42
2023-06-17T04:56:45.662Z,21.51
2023-06-17T04:59:13.318Z,21.63
2023-06-17T05:01:41.243Z,21.69
2023-06-17T05:04:09.032Z,21.74
2023-06-17T05:06:37.250Z,21.78
2023-06-17T05:09:05.134Z,21.86
2023-06-17T05:11:33.017Z,21.89
2023-06-17T05:14:00.659Z,21.95
2023-06-17T05:16:28.247Z,21.98
2023-06-17T05:18:56.359Z,22.03
2023-06-17T05:21:24.144Z,22.19
2023-06-17T05:23:53.226Z,22.32
2023-06-17T05:26:21.245Z,22.42
2023-06-17T05:28:48.910Z,22.52
2023-06-17T05:31:17.202Z,22.61
2023-06-17T05:33:45.270Z,22.69
2023-06-17T05:36:12.937Z,22.72
2023-06-17T05:38:40.991Z,22.79
2023-06-17T05:41:08.426Z,22.85
2023-06-17T05:43:36.964Z,22.96
2023-06-17T05:46:04.520Z,23.17
2023-06-17T05:48:32.315Z,23.38
2023-06-17T05:50:59.784Z,23.59
2023-06-17T05:53:27.247Z,23.91
2023-06-17T05:55:55.398Z,24.09
2023-06-17T05:58:22.902Z,24.16
2023-06-17T06:00:59.267Z,24.24
2023-06-17T06:03:26.795Z,24.24
2023-06-17T06:05:54.368Z,24.17
2023-06-17T06:08:21.856Z,24.13
2023-06-17T06:10:49.480Z,24.16
2023-06-17T06:13:17.281Z,24.23
2023-06-17T06:15:44.850Z,24.30
2023-06-17T06:18:12.467Z,24.37
2023-06-17T06:20:39.936Z,24.43
2023-06-17T06:23:08.037Z,24.50
2023-06-17T06:25:35.894Z,24.53
2023-06-17T06:28:03.603Z,24.58
2023-06-17T06:30:31.095Z,24.65
2023-06-17T06:32:59.955Z,24.66
2023-06-17T06:35:27.623Z,24.65
2023-06-17T06:37:55.474Z,24.60
2023-06-17T06:40:24.495Z,24.54
2023-06-17T06:42:52.132Z,24.52
2023-06-17T06:45:27.341Z,24.59
2023-06-17T06:47:56.207Z,24.66
2023-06-17T06:50:24.192Z,24.61
2023-06-17T06:52:53.131Z,24.62
2023-06-17T06:55:20.941Z,24.69
2023-06-17T06:57:50.116Z,24.71
2023-06-17T07:00:18.693Z,24.59
2023-06-17T07:02:47.285Z,24.47
2023-06-17T07:05:15.232Z,24.44
2023-06-17T07:07:48.562Z,24.49
2023-06-17T07:10:16.029Z,24.50
2023-06-17T07:12:43.576Z,24.52
2023-06-17T07:15:11.410Z,24.55
2023-06-17T07:17:38.881Z,24.58
2023-06-17T07:20:07.147Z,24.64
2023-06-17T07:22:36.303Z,24.62
2023-06-17T07:25:04.355Z,24.59
2023-06-17T07:27:31.941Z,24.58
2023-06-17T07:29:59.377Z,24.60
2023-06-17T07:32:27.032Z,24.63
2023-06-17T07:34:58.287Z,24.64
2023-06-17T07:37:26.400Z,24.63
2023-06-17T07:39:54.159Z,24.65
2023-06-17T07:42:22.846Z,24.67
2023-06-17T07:44:50.317Z,24.71
2023-06-17T07:47:18.169Z,24.76
2023-06-17T07:49:45.748Z,24.82
2023-06-17T07:52:13.528Z,24.82
2023-06-17T07:54:42.325Z,24.83
2023-06-17T07:57:09.774Z,24.87
2023-06-17T07:59:37.347Z,24.85
2023-06-17T08:02:07.309Z,24.84
2023-06-17T08:04:37.149Z,24.85
2023-06-17T08:07:05.857Z,24.90
2023-06-17T08:09:33.632Z,24.89
2023-06-17T08:12:01.222Z,24.94
2023-06-17T08:14:28.696Z,25.00
2023-06-17T08:16:56.635Z,25.12
2023-06-17T08:19:24.133Z,25.16
2023-06-17T08:21:51.972Z,25.17
2023-06-17T08:24:19.989Z,25.15
2023-06-17T08:26:47.746Z,25.19
2023-06-17T08:29:16.378Z,25.28
2023-06-17T08:31:44.797Z,25.37
2023-06-17T08:34:12.974Z,25.32
2023-06-17T08:36:42.989Z,25.31
2023-06-17T08:39:11.167Z,25.20
2023-06-17T08:41:40.361Z,25.31
2023-06-17T08:44:09.397Z,25.51
2023-06-17T08:46:36.871Z,25.67
2023-06-17T08:49:04.409Z,25.80
2023-06-17T08:51:32.510Z,25.87
2023-06-17T08:54:00.157Z,25.89
2023-06-17T08:56:27.629Z,25.82
2023-06-17T08:58:58.139Z,25.87
2023-06-17T09:01:26.398Z,25.84
2023-06-17T09:03:55.416Z,25.79
2023-06-17T09:06:24.718Z,25.79
2023-06-17T09:08:52.966Z,25.82
2023-06-17T09:11:24.637Z,25.86
2023-06-17T09:13:53.041Z,25.85
2023-06-17T09:16:27.962Z,25.81
2023-06-17T09:18:58.875Z,25.75
2023-06-17T09:21:27.193Z,25.72
2023-06-17T09:23:59.206Z,25.73
2023-06-17T09:26:29.900Z,25.73
2023-06-17T09:29:02.763Z,25.74
2023-06-17T09:31:30.762Z,25.73
2023-06-17T09:33:59.148Z,25.70
2023-06-17T09:36:26.917Z,25.76
2023-06-17T09:38:54.406Z,25.79
2023-06-17T09:41:22.104Z,25.86
2023-06-17T09:43:53.380Z,25.93
2023-06-17T09:46:46.008Z,25.97
2023-06-17T09:49:16.860Z,25.97
2023-06-17T09:51:44.380Z,26.01
2023-06-17T09:54:11.994Z,26.05
2023-06-17T09:56:39.462Z,26.07
2023-06-17T09:59:09.890Z,26.04
2023-06-17T10:01:40.885Z,26.06
2023-06-17T10:04:08.934Z,26.10
2023-06-17T10:06:38.080Z,26.15
2023-06-17T10:09:07.889Z,26.19
2023-06-17T10:11:36.263Z,26.18
2023-06-17T10:14:08.412Z,26.18
2023-06-17T10:16:38.116Z,26.22
2023-06-17T10:19:07.328Z,26.22
2023-06-17T10:21:35.791Z,26.22
2023-06-17T10:24:03.379Z,26.23
2023-06-17T10:26:32.387Z,26.24
2023-06-17T10:29:07.982Z,26.25
2023-06-17T10:31:40.706Z,26.27
2023-06-17T10:34:21.233Z,26.31
2023-06-17T10:36:49.909Z,26.31
2023-06-17T10:39:17.496Z,26.31
2023-06-17T10:41:52.533Z,26.34
2023-06-17T10:44:41.269Z,26.39
2023-06-17T10:47:20.664Z,26.44
2023-06-17T10:49:52.177Z,26.45
2023-06-17T10:52:20.141Z,26.45
2023-06-17T10:54:56.957Z,26.45
2023-06-17T10:57:35.088Z,26.51
2023-06-17T11:00:08.314Z,26.58
2023-06-17T11:02:39.725Z,26.57
2023-06-17T11:05:08.133Z,26.45
2023-06-17T11:07:35.714Z,26.33
2023-06-17T11:10:03.979Z,26.22
2023-06-17T11:12:31.787Z,26.18
2023-06-17T11:15:01.617Z,26.17
2023-06-17T11:17:29.286Z,26.23
2023-06-17T11:19:56.905Z,26.30
2023-06-17T11:22:24.352Z,26.34
2023-06-17T11:24:51.950Z,26.40
2023-06-17T11:27:19.403Z,26.44
2023-06-17T11:29:47.210Z,26.49
2023-06-17T11:32:14.774Z,26.53
2023-06-17T11:34:42.250Z,26.55
2023-06-17T11:37:12.573Z,26.58
2023-06-17T11:39:40.359Z,26.65
2023-06-17T11:42:08.424Z,26.71
2023-06-17T11:44:36.374Z,26.77
2023-06-17T11:47:10.223Z,26.78
2023-06-17T11:49:41.714Z,26.76
2023-06-17T11:52:10.904Z,26.79
2023-06-17T11:54:50.319Z,26.81
2023-06-17T11:57:27.746Z,26.85
2023-06-17T12:00:06.333Z,26.85
2023-06-17T12:02:40.063Z,26.81
2023-06-17T12:05:08.243Z,26.75
2023-06-17T12:07:42.757Z,26.69
2023-06-17T12:10:12.300Z,26.63
2023-06-17T12:12:42.252Z,26.57
2023-06-17T12:15:16.542Z,26.55
2023-06-17T12:17:49.979Z,26.56
2023-06-17T12:20:19.783Z,26.55
2023-06-17T12:22:49.954Z,26.53
2023-06-17T12:25:17.571Z,26.57
2023-06-17T12:27:45.428Z,26.61
2023-06-17T12:30:13.476Z,26.65
2023-06-17T12:32:41.499Z,26.74
2023-06-17T12:35:12.766Z,26.76
2023-06-17T12:37:41.868Z,26.75
2023-06-17T12:40:10.563Z,26.71
2023-06-17T12:42:38.524Z,26.68
2023-06-17T12:45:07.488Z,26.70
2023-06-17T12:47:35.167Z,26.70
2023-06-17T12:50:02.818Z,26.73
2023-06-17T12:52:30.449Z,26.76
2023-06-17T12:55:02.012Z,26.76
2023-06-17T12:57:30.191Z,26.73
2023-06-17T12:59:57.758Z,26.71
2023-06-17T13:02:25.271Z,26.70
2023-06-17T13:04:52.982Z,26.70
2023-06-17T13:07:21.227Z,26.71
2023-06-17T13:09:48.748Z,26.70
2023-06-17T13:12:16.282Z,26.66
2023-06-17T13:14:43.730Z,26.64
2023-06-17T13:17:11.363Z,26.60
2023-06-17T13:19:39.188Z,26.60
2023-06-17T13:22:07.252Z,26.60
2023-06-17T13:24:34.871Z,26.57
2023-06-17T13:27:02.999Z,26.56
2023-06-17T13:29:30.673Z,26.56
2023-06-17T13:31:58.162Z,26.57
2023-06-17T13:34:27.129Z,26.60
2023-06-17T13:36:54.799Z,26.64
2023-06-17T13:39:22.363Z,26.64
2023-06-17T13:41:49.866Z,26.63
2023-06-17T13:44:17.703Z,26.61
2023-06-17T13:46:45.545Z,26.60
2023-06-17T13:49:13.159Z,26.61
2023-06-17T13:51:40.800Z,26.57
2023-06-17T13:54:08.286Z,26.53
2023-06-17T13:56:36.068Z,26.46
2023-06-17T13:59:04.101Z,26.44
2023-06-17T14:01:31.704Z,26.41
2023-06-17T14:03:59.673Z,26.39
2023-06-17T14:06:27.321Z,26.37
2023-06-17T14:08:55.112Z,26.37
2023-06-17T14:11:23.545Z,26.36
2023-06-17T14:13:51.154Z,26.35
2023-06-17T14:16:18.865Z,26.35
2023-06-17T14:18:46.402Z,26.34
2023-06-17T14:21:28.480Z,26.33
2023-06-17T14:24:04.101Z,26.34
2023-06-17T14:26:32.844Z,26.32
2023-06-17T14:29:00.509Z,26.32
2023-06-17T14:31:28.549Z,26.33
2023-06-17T14:33:56.234Z,26.27
2023-06-17T14:36:24.058Z,26.24
2023-06-17T14:38:51.766Z,26.20
2023-06-17T14:41:19.357Z,26.21
2023-06-17T14:43:47.496Z,26.21
2023-06-17T14:46:15.567Z,26.23
2023-06-17T14:48:43.141Z,26.21
2023-06-17T14:51:10.907Z,26.21
2023-06-17T14:53:41.671Z,26.19
2023-06-17T14:56:29.651Z,26.19
2023-06-17T14:59:01.457Z,26.16
2023-06-17T15:01:35.378Z,26.13
2023-06-17T15:04:03.946Z,26.15
2023-06-17T15:06:32.787Z,26.17
2023-06-17T15:09:26.931Z,26.18
2023-06-17T15:11:57.945Z,26.18
2023-06-17T15:14:29.913Z,26.17
2023-06-17T15:16:57.655Z,26.17
2023-06-17T15:19:25.116Z,26.15
2023-06-17T15:21:52.805Z,26.11
2023-06-17T15:24:20.835Z,26.10
2023-06-17T15:26:48.423Z,26.08
2023-06-17T15:29:16.863Z,26.06
2023-06-17T15:31:45.492Z,26.04
2023-06-17T15:34:13.066Z,26.01
2023-06-17T15:36:41.587Z,25.98
2023-06-17T15:39:19.410Z,25.95
2023-06-17T15:41:47.493Z,25.92
2023-06-17T15:44:16.120Z,25.91
2023-06-17T15:46:43.858Z,25.89
2023-06-17T15:49:11.581Z,25.87
2023-06-17T15:51:39.097Z,25.85
2023-06-17T15:54:06.716Z,25.83
2023-06-17T15:56:35.662Z,25.79
2023-06-17T15:59:03.651Z,25.79
2023-06-17T16:01:31.228Z,25.77
2023-06-17T16:03:58.837Z,25.75
2023-06-17T16:06:26.783Z,25.72
2023-06-17T16:08:54.611Z,25.68
2023-06-17T16:11:22.032Z,25.64
2023-06-17T16:13:49.585Z,25.61
2023-06-17T16:16:17.281Z,25.58
2023-06-17T16:18:44.844Z,25.56
2023-06-17T16:21:12.277Z,25.54
2023-06-17T16:23:39.720Z,25.51
2023-06-17T16:26:07.142Z,25.49
2023-06-17T16:28:34.583Z,25.47
2023-06-17T16:31:02.130Z,25.45
2023-06-17T16:33:29.621Z,25.42
2023-06-17T16:35:57.259Z,25.39
2023-06-17T16:38:24.737Z,25.36
2023-06-17T16:40:52.146Z,25.33
2023-06-17T16:43:19.566Z,25.29
2023-06-17T16:45:47.134Z,25.25
2023-06-17T16:48:14.958Z,25.23
2023-06-17T16:50:42.543Z,25.20
2023-06-17T16:53:10.110Z,25.18
2023-06-17T16:55:37.607Z,25.15
2023-06-17T16:58:05.133Z,25.11
2023-06-17T17:00:32.730Z,25.08
2023-06-17T17:03:00.415Z,25.05
2023-06-17T17:05:28.035Z,24.99
2023-06-17T17:07:55.594Z,24.96
2023-06-17T17:10:26.042Z,24.91
2023-06-17T17:12:53.499Z,24.87
2023-06-17T17:15:21.888Z,24.84
2023-06-17T17:17:49.666Z,24.81
2023-06-17T17:20:17.524Z,24.77
2023-06-17T17:22:45.169Z,24.71
2023-06-17T17:25:12.676Z,24.68
2023-06-17T17:27:40.275Z,24.65
2023-06-17T17:30:08.579Z,24.62
2023-06-17T17:32:37.134Z,24.59
2023-06-17T17:35:05.298Z,24.56
2023-06-17T17:37:32.819Z,24.52
2023-06-17T17:40:00.491Z,24.48
2023-06-17T17:42:29.280Z,24.45
2023-06-17T17:44:56.798Z,24.42
2023-06-17T17:47:24.336Z,24.39
2023-06-17T17:49:52.193Z,24.35
2023-06-17T17:52:19.777Z,24.32
2023-06-17T17:55:01.244Z,24.29
2023-06-17T17:57:30.261Z,24.24
2023-06-17T17:59:57.910Z,24.18
2023-06-17T18:02:26.116Z,24.14
2023-06-17T18:04:53.799Z,24.11
2023-06-17T18:07:21.478Z,24.07
2023-06-17T18:09:49.075Z,24.04
2023-06-17T18:12:17.022Z,24.01
2023-06-17T18:14:44.512Z,23.98
2023-06-17T18:17:12.006Z,23.95
2023-06-17T18:19:39.866Z,23.92
2023-06-17T18:22:07.420Z,23.89
2023-06-17T18:24:35.021Z,23.86
2023-06-17T18:27:02.644Z,23.84
2023-06-17T18:29:30.511Z,23.81
2023-06-17T18:31:58.077Z,23.77
2023-06-17T18:34:25.850Z,23.74
2023-06-17T18:36:53.829Z,23.71
2023-06-17T18:39:21.267Z,23.68
2023-06-17T18:41:48.949Z,23.66
2023-06-17T18:44:16.511Z,23.63
2023-06-17T18:46:44.219Z,23.60
2023-06-17T18:49:20.836Z,23.57
2023-06-17T18:51:49.400Z,23.54
2023-06-17T18:54:17.477Z,23.52
2023-06-17T18:56:45.025Z,23.50
2023-06-17T18:59:12.604Z,23.47
2023-06-17T19:01:40.540Z,23.44
2023-06-17T19:04:09.400Z,23.43
2023-06-17T19:06:38.209Z,23.40
2023-06-17T19:09:06.704Z,23.38
2023-06-17T19:11:34.410Z,23.36
2023-06-17T19:14:02.056Z,23.33
2023-06-17T19:16:29.737Z,23.31
2023-06-17T19:18:57.453Z,23.29
2023-06-17T19:21:25.035Z,23.26
2023-06-17T19:23:53.092Z,23.24
2023-06-17T19:26:20.980Z,23.21
2023-06-17T19:28:48.428Z,23.19
2023-06-17T19:31:16.228Z,23.17
2023-06-17T19:33:44.580Z,23.15
2023-06-17T19:36:12.062Z,23.13
2023-06-17T19:38:39.529Z,23.11
2023-06-17T19:41:07.187Z,23.09
2023-06-17T19:43:35.947Z,23.08
2023-06-17T19:46:03.485Z,23.07
2023-06-17T19:48:31.118Z,23.06
2023-06-17T19:51:02.019Z,23.06
2023-06-17T19:53:29.648Z,23.05
2023-06-17T19:55:57.104Z,23.05
2023-06-17T19:58:24.581Z,23.05
2023-06-17T20:00:51.987Z,23.05
2023-06-17T20:03:19.536Z,23.04
2023-06-17T20:05:47.367Z,23.04
2023-06-17T20:08:14.822Z,23.03
2023-06-17T20:10:42.625Z,23.03
2023-06-17T20:13:10.271Z,23.02
2023-06-17T20:15:38.252Z,23.01
2023-06-17T20:18:06.306Z,23.01
2023-06-17T20:20:33.887Z,23.00
2023-06-17T20:23:01.307Z,22.98
2023-06-17T20:25:29.656Z,22.97
2023-06-17T20:27:57.100Z,22.95
2023-06-17T20:30:24.745Z,22.94
2023-06-17T20:32:52.408Z,22.93
2023-06-17T20:35:19.910Z,22.91
2023-06-17T20:37:47.411Z,22.89
2023-06-17T20:40:14.880Z,22.88
2023-06-17T20:42:42.449Z,22.86
2023-06-17T20:45:11.022Z,22.84
2023-06-17T20:47:38.735Z,22.83
2023-06-17T20:50:07.304Z,22.81
2023-06-17T20:52:34.739Z,22.79
2023-06-17T20:55:02.347Z,22.77
2023-06-17T20:57:29.990Z,22.76
2023-06-17T20:59:57.754Z,22.73
2023-06-17T21:02:25.413Z,22.72
2023-06-17T21:04:53.029Z,22.69
2023-06-17T21:07:20.699Z,22.67
2023-06-17T21:09:48.639Z,22.64
2023-06-17T21:12:16.294Z,22.61
2023-06-17T21:14:43.896Z,22.60
2023-06-17T21:17:11.462Z,22.57
2023-06-17T21:19:38.893Z,22.55
2023-06-17T21:22:06.666Z,22.52
2023-06-17T21:24:34.255Z,22.50
2023-06-17T21:27:01.811Z,22.48
2023-06-17T21:29:29.297Z,22.46
2023-06-17T21:31:56.720Z,22.44
2023-06-17T21:34:24.196Z,22.41
2023-06-17T21:36:51.850Z,22.38
2023-06-17T21:39:19.409Z,22.35
2023-06-17T21:41:46.897Z,22.33
2023-06-17T21:44:14.651Z,22.30
2023-06-17T21:46:42.277Z,22.28
2023-06-17T21:49:09.767Z,22.24
2023-06-17T21:51:37.492Z,22.20
2023-06-17T21:54:05.035Z,22.16
2023-06-17T21:56:32.494Z,22.13
2023-06-17T21:58:59.952Z,22.09
2023-06-17T22:01:27.927Z,22.06
2023-06-17T22:03:55.778Z,22.03
2023-06-17T22:06:23.431Z,22.00
2023-06-17T22:08:50.911Z,21.96
2023-06-17T22:11:18.404Z,21.93
2023-06-17T22:13:46.027Z,21.91
2023-06-17T22:16:13.608Z,21.87
2023-06-17T22:18:41.558Z,21.85
2023-06-17T22:21:09.003Z,21.82
2023-06-17T22:23:36.566Z,21.79
2023-06-17T22:26:04.074Z,21.77
2023-06-17T22:28:31.489Z,21.74
2023-06-17T22:30:58.934Z,21.71
2023-06-17T22:33:26.426Z,21.68
2023-06-17T22:35:53.867Z,21.65
2023-06-17T22:38:21.570Z,21.62
2023-06-17T22:40:49.146Z,21.59
2023-06-17T22:43:17.124Z,21.57
2023-06-17T22:45:44.689Z,21.54
2023-06-17T22:48:12.288Z,21.50
2023-06-17T22:50:39.814Z,21.47
2023-06-17T22:53:07.263Z,21.46
2023-06-17T22:55:36.071Z,21.42
2023-06-17T22:58:03.982Z,21.40
2023-06-17T23:00:33.944Z,21.37
2023-06-17T23:03:01.627Z,21.35
2023-06-17T23:05:29.219Z,21.32
2023-06-17T23:07:56.753Z,21.30
2023-06-17T23:10:24.339Z,21.27
2023-06-17T23:12:52.195Z,21.24
2023-06-17T23:15:19.605Z,21.21
2023-06-17T23:17:47.109Z,21.18
2023-06-17T23:20:14.772Z,21.15
2023-06-17T23:22:42.287Z,21.12
2023-06-17T23:25:11.409Z,21.10
2023-06-17T23:27:38.906Z,21.07
2023-06-17T23:30:08.803Z,21.05
2023-06-17T23:32:36.946Z,21.03
2023-06-17T23:35:05.679Z,21.00
2023-06-17T23:37:34.334Z,20.97
2023-06-17T23:40:01.806Z,20.94
2023-06-17T23:42:29.251Z,20.92
2023-06-17T23:44:56.698Z,20.88
2023-06-17T23:47:24.490Z,20.84
2023-06-17T23:49:54.160Z,20.81
2023-06-17T23:52:21.830Z,20.78
2023-06-17T23:54:50.106Z,20.75
2023-06-17T23:57:17.679Z,20.72
2023-06-17T23:59:45.506Z,20.69
